Time;durP1;ratioP1;P1;durP2;ratioP2;P2;SDS_P1;SDS_P2;PMS_P1;PMS_P2;Temp;Humidity;BMP_temperature;BMP_pressure;BME280_temperature;BME280_humidity;BME280_pressure;Samples;Min_cycle;Max_cycle;Signal;HPM_P1;HPM_P2
2020/12/31 00:01:30;;;;;;;9.10;8.40;;;25.30;99.90;;;;;;5055980;28;20399;-63
2020/12/31 00:03:58;;;;;;;8.80;7.90;;;25.50;99.90;;;;;;5074560;28;20029;-63
2020/12/31 00:06:26;;;;;;;8.40;7.70;;;25.40;99.90;;;;;;5074518;28;20020;-63
2020/12/31 00:08:54;;;;;;;9.50;7.82;;;25.50;99.90;;;;;;5074125;28;20148;-64
2020/12/31 00:11:22;;;;;;;9.02;8.10;;;25.20;99.90;;;;;;5074153;28;20020;-63
2020/12/31 00:13:49;;;;;;;8.40;7.60;;;25.10;99.90;;;;;;5074085;28;20054;-63
2020/12/31 00:16:17;;;;;;;8.70;7.80;;;25.50;99.90;;;;;;5074373;28;20027;-64
2020/12/31 00:18:45;;;;;;;12.00;8.73;;;25.70;99.90;;;;;;5074287;28;20024;-64
2020/12/31 00:21:13;;;;;;;10.10;8.75;;;25.60;99.90;;;;;;5074004;28;20045;-63
2020/12/31 00:23:41;;;;;;;8.75;7.90;;;25.70;99.90;;;;;;5072079;28;20079;-63
2020/12/31 00:26:09;;;;;;;9.52;8.55;;;25.70;99.90;;;;;;5073880;28;20029;-64
2020/12/31 00:28:37;;;;;;;9.43;8.15;;;25.80;99.90;;;;;;5074010;28;20024;-63
2020/12/31 00:31:04;;;;;;;10.23;8.60;;;25.60;99.90;;;;;;5072619;28;20036;-63
2020/12/31 00:33:32;;;;;;;8.07;7.53;;;25.80;99.90;;;;;;5073704;28;20092;-63
2020/12/31 00:36:00;;;;;;;8.65;7.80;;;25.70;99.90;;;;;;5072474;28;20017;-63
2020/12/31 00:38:28;;;;;;;9.43;8.52;;;25.80;99.90;;;;;;5073882;28;20078;-63
2020/12/31 00:40:56;;;;;;;9.82;9.00;;;25.90;99.90;;;;;;5072689;28;20393;-63
2020/12/31 00:43:25;;;;;;;13.18;9.07;;;26.20;99.90;;;;;;5073583;28;20081;-63
2020/12/31 00:45:53;;;;;;;9.07;8.38;;;26.20;99.90;;;;;;5055167;28;20037;-63
2020/12/31 00:48:21;;;;;;;8.85;8.13;;;26.20;99.90;;;;;;5073556;28;20362;-63
2020/12/31 00:50:53;;;;;;;8.82;7.82;;;26.10;99.90;;;;;;5073237;28;20459;-63
2020/12/31 00:53:21;;;;;;;9.73;8.77;;;26.10;99.90;;;;;;5073205;28;20024;-63
2020/12/31 00:55:49;;;;;;;9.25;8.40;;;25.90;99.90;;;;;;5073727;28;20025;-63
2020/12/31 00:58:17;;;;;;;9.10;7.53;;;26.00;99.90;;;;;;5073652;28;20411;-63
2020/12/31 01:00:45;;;;;;;9.02;8.30;;;25.90;99.90;;;;;;5073603;28;20103;-63
2020/12/31 01:03:15;;;;;;;9.23;8.40;;;26.10;99.90;;;;;;5073296;28;20020;-62
2020/12/31 01:05:44;;;;;;;8.75;8.05;;;26.30;99.90;;;;;;5073571;28;20024;-62
2020/12/31 01:08:12;;;;;;;9.35;8.45;;;26.20;99.90;;;;;;5073452;28;20089;-62
2020/12/31 01:10:40;;;;;;;10.32;9.23;;;26.20;99.90;;;;;;5073174;28;20020;-62
2020/12/31 01:13:09;;;;;;;9.25;8.30;;;25.80;99.90;;;;;;5073151;28;20055;-63
2020/12/31 01:15:40;;;;;;;9.32;8.43;;;25.70;99.90;;;;;;5073062;28;20017;-63
2020/12/31 01:18:08;;;;;;;9.10;8.30;;;25.60;99.90;;;;;;5073379;28;20025;-63
2020/12/31 01:20:39;;;;;;;8.15;7.53;;;25.50;99.90;;;;;;5073157;28;20024;-63
2020/12/31 01:23:07;;;;;;;9.27;8.20;;;25.40;99.90;;;;;;5073586;28;20020;-63
2020/12/31 01:25:38;;;;;;;9.60;8.50;;;25.60;99.90;;;;;;5073077;28;20032;-63
2020/12/31 01:28:07;;;;;;;11.20;8.75;;;25.60;99.90;;;;;;5071876;28;20017;-63
2020/12/31 01:30:35;;;;;;;8.48;7.80;;;25.70;99.90;;;;;;5073261;28;20107;-63
2020/12/31 01:33:03;;;;;;;9.85;8.85;;;25.70;99.90;;;;;;5072958;28;20070;-63
2020/12/31 01:35:31;;;;;;;11.85;9.15;;;25.70;99.90;;;;;;5073027;28;20087;-63
2020/12/31 01:37:59;;;;;;;11.00;9.10;;;25.70;99.90;;;;;;5072931;28;20027;-62
2020/12/31 01:40:27;;;;;;;9.20;8.40;;;25.50;99.90;;;;;;5072990;28;20031;-63
2020/12/31 01:42:56;;;;;;;10.10;9.30;;;25.60;99.90;;;;;;5072922;28;20437;-63
2020/12/31 01:45:24;;;;;;;9.57;8.80;;;25.70;99.90;;;;;;5073180;28;20107;-63
2020/12/31 01:47:53;;;;;;;9.60;8.80;;;25.80;99.90;;;;;;5072926;28;20056;-63
2020/12/31 01:50:22;;;;;;;10.15;9.25;;;25.60;99.90;;;;;;5072533;28;20036;-63
2020/12/31 01:52:50;;;;;;;9.50;8.68;;;25.40;99.90;;;;;;5071518;28;20020;-63
2020/12/31 01:55:18;;;;;;;9.25;8.50;;;25.20;99.90;;;;;;5072943;28;20025;-63
2020/12/31 01:57:48;;;;;;;9.95;8.98;;;24.80;99.90;;;;;;5072701;28;20017;-63
2020/12/31 02:00:16;;;;;;;9.60;8.77;;;24.70;99.90;;;;;;5072792;28;20032;-63
2020/12/31 02:02:44;;;;;;;10.05;8.40;;;24.50;99.90;;;;;;5071835;28;20024;-63
2020/12/31 02:05:13;;;;;;;9.95;9.00;;;24.40;99.90;;;;;;5075769;28;20021;-63
2020/12/31 02:07:46;;;;;;;10.77;8.55;;;24.40;99.90;;;;;;5058174;28;20064;-63
2020/12/31 02:10:15;;;;;;;9.85;8.98;;;24.40;99.90;;;;;;5076783;28;20408;-63
2020/12/31 02:12:44;;;;;;;9.60;8.65;;;24.30;99.90;;;;;;5076482;28;20480;-63
2020/12/31 02:15:17;;;;;;;10.23;8.95;;;24.20;99.90;;;;;;5076601;28;20025;-63
2020/12/31 02:17:45;;;;;;;9.30;8.70;;;23.90;99.90;;;;;;5076669;28;20025;-63
2020/12/31 02:20:14;;;;;;;9.45;8.73;;;23.70;99.90;;;;;;5076265;28;20111;-63
2020/12/31 02:22:42;;;;;;;9.65;8.77;;;23.60;99.90;;;;;;5076514;28;20103;-63
2020/12/31 02:25:10;;;;;;;9.07;8.35;;;23.60;99.90;;;;;;5074908;28;20020;-63
2020/12/31 02:27:38;;;;;;;9.07;8.38;;;23.60;99.90;;;;;;5076524;28;20436;-63
2020/12/31 02:30:06;;;;;;;8.50;7.90;;;23.60;99.90;;;;;;5075131;28;20103;-62
2020/12/31 02:32:34;;;;;;;10.07;9.07;;;23.60;99.90;;;;;;5076037;28;20362;-63
2020/12/31 02:35:03;;;;;;;9.40;8.60;;;23.40;99.90;;;;;;5075019;28;20530;-62
2020/12/31 02:37:31;;;;;;;10.55;9.52;;;23.40;99.90;;;;;;5075915;28;20040;-62
2020/12/31 02:39:59;;;;;;;10.27;9.38;;;23.30;99.90;;;;;;5075960;28;20107;-62
2020/12/31 02:42:27;;;;;;;10.15;9.25;;;23.30;99.90;;;;;;5076126;28;20516;-63
2020/12/31 02:44:55;;;;;;;10.25;9.30;;;23.30;99.90;;;;;;5076115;28;20016;-62
2020/12/31 02:47:23;;;;;;;10.57;9.18;;;23.20;99.90;;;;;;5075750;28;20040;-63
2020/12/31 02:49:51;;;;;;;9.55;8.70;;;23.10;99.90;;;;;;5074360;28;20135;-63
2020/12/31 02:52:20;;;;;;;8.77;8.05;;;23.10;99.90;;;;;;5074512;28;20102;-62
2020/12/31 02:54:48;;;;;;;9.60;8.75;;;23.00;99.90;;;;;;5075979;28;20031;-63
2020/12/31 02:57:16;;;;;;;12.13;9.40;;;23.10;99.90;;;;;;5074381;28;20024;-63
2020/12/31 02:59:44;;;;;;;10.35;9.43;;;23.10;99.90;;;;;;5075818;28;20028;-62
2020/12/31 03:02:12;;;;;;;9.77;8.75;;;23.10;99.90;;;;;;5075527;28;20025;-63
2020/12/31 03:04:40;;;;;;;9.63;8.68;;;23.10;99.90;;;;;;5075509;28;20020;-63
2020/12/31 03:07:08;;;;;;;9.48;8.55;;;23.10;99.90;;;;;;5073674;28;20086;-63
2020/12/31 03:09:36;;;;;;;10.57;7.30;;;23.10;99.90;;;;;;5075530;28;20028;-62
2020/12/31 03:12:04;;;;;;;9.32;8.48;;;23.10;99.90;;;;;;5075604;28;20028;-62
2020/12/31 03:14:32;;;;;;;9.50;8.10;;;23.20;99.90;;;;;;5075141;28;20021;-63
2020/12/31 03:17:00;;;;;;;11.45;8.70;;;23.30;99.90;;;;;;5075340;28;20046;-63
2020/12/31 03:19:29;;;;;;;8.80;8.10;;;23.30;99.90;;;;;;5075176;28;20067;-63
2020/12/31 03:21:57;;;;;;;9.60;8.75;;;23.40;99.90;;;;;;5075240;28;20029;-63
2020/12/31 03:24:25;;;;;;;8.82;8.00;;;23.40;99.90;;;;;;5075081;28;20036;-63
2020/12/31 03:26:53;;;;;;;9.43;7.78;;;23.50;99.90;;;;;;5075349;28;20357;-62
2020/12/31 03:29:21;;;;;;;9.20;8.40;;;23.40;99.90;;;;;;5074841;28;20036;-63
2020/12/31 03:31:49;;;;;;;8.68;7.88;;;23.30;99.90;;;;;;5075298;28;20027;-62
2020/12/31 03:34:18;;;;;;;9.35;8.50;;;23.30;99.90;;;;;;5057244;28;20025;-63
2020/12/31 03:36:46;;;;;;;8.82;7.85;;;23.30;99.90;;;;;;5056488;28;20032;-63
2020/12/31 03:39:14;;;;;;;15.35;9.02;;;23.30;99.90;;;;;;5074930;28;20432;-63
2020/12/31 03:41:43;;;;;;;9.38;8.30;;;23.30;99.90;;;;;;5074939;28;20024;-63
2020/12/31 03:44:11;;;;;;;9.40;8.50;;;23.30;99.90;;;;;;5074645;28;20027;-63
2020/12/31 03:46:39;;;;;;;10.18;8.50;;;23.30;99.90;;;;;;5074896;28;20434;-63
2020/12/31 03:49:07;;;;;;;8.77;7.88;;;23.20;99.90;;;;;;5074586;28;20055;-63
2020/12/31 03:51:36;;;;;;;12.02;8.50;;;23.20;99.90;;;;;;5074642;28;20027;-63
2020/12/31 03:54:04;;;;;;;8.90;8.00;;;23.20;99.90;;;;;;5074522;28;20024;-63
2020/12/31 03:56:32;;;;;;;10.18;9.13;;;23.10;99.90;;;;;;5056067;28;20062;-63
2020/12/31 03:59:00;;;;;;;10.50;8.90;;;23.10;99.90;;;;;;5074548;28;20028;-63
2020/12/31 04:01:30;;;;;;;10.20;8.65;;;23.10;99.90;;;;;;5074349;28;20028;-63
2020/12/31 04:03:59;;;;;;;14.02;8.70;;;23.00;99.90;;;;;;5055915;28;20033;-63
2020/12/31 04:06:29;;;;;;;10.57;9.57;;;22.90;99.90;;;;;;5074291;28;20477;-63
2020/12/31 04:08:57;;;;;;;10.40;8.65;;;22.80;99.90;;;;;;5074121;28;20029;-63
2020/12/31 04:11:26;;;;;;;10.75;9.32;;;22.70;99.90;;;;;;5074369;28;20099;-63
2020/12/31 04:13:54;;;;;;;9.98;9.02;;;22.70;99.90;;;;;;5074390;28;20055;-63
2020/12/31 04:16:22;;;;;;;9.50;8.70;;;22.80;99.90;;;;;;5074266;28;20020;-63
2020/12/31 04:18:50;;;;;;;9.82;8.85;;;22.80;99.90;;;;;;5074312;28;20115;-63
2020/12/31 04:21:23;;;;;;;9.27;8.52;;;22.80;99.90;;;;;;5074225;28;20028;-63
2020/12/31 04:23:51;;;;;;;11.40;9.07;;;22.70;99.90;;;;;;5074137;28;20024;-63
2020/12/31 04:26:19;;;;;;;11.48;10.27;;;22.60;99.90;;;;;;5073131;28;20082;-62
2020/12/31 04:28:47;;;;;;;10.13;9.40;;;22.40;99.90;;;;;;5071974;28;20033;-62
2020/12/31 04:31:15;;;;;;;10.70;9.70;;;22.20;99.90;;;;;;5074091;28;20044;-62
2020/12/31 04:33:46;;;;;;;9.07;8.18;;;22.10;99.90;;;;;;5074061;28;20054;-62
2020/12/31 04:36:14;;;;;;;9.25;8.60;;;22.00;99.90;;;;;;5055528;28;20033;-62
2020/12/31 04:38:42;;;;;;;9.93;8.40;;;22.00;99.90;;;;;;5073731;28;20475;-62
2020/12/31 04:41:12;;;;;;;9.95;8.95;;;21.90;99.90;;;;;;5073528;28;20028;-62
2020/12/31 04:43:41;;;;;;;10.52;7.40;;;21.80;99.90;;;;;;5073734;28;20024;-62
2020/12/31 04:46:14;;;;;;;9.40;8.50;;;21.70;99.90;;;;;;5073630;28;20032;-63
2020/12/31 04:48:47;;;;;;;9.63;8.70;;;21.70;99.90;;;;;;5073307;28;20031;-62
2020/12/31 04:51:16;;;;;;;9.40;8.50;;;21.70;99.90;;;;;;5055139;28;20090;-63
2020/12/31 04:53:45;;;;;;;9.05;7.93;;;21.70;99.90;;;;;;5073414;28;20027;-62
2020/12/31 04:56:18;;;;;;;10.05;8.70;;;21.60;99.90;;;;;;5073627;28;20166;-62
2020/12/31 04:58:46;;;;;;;5.95;1.30;;;21.60;99.90;;;;;;5073854;28;20028;-62
2020/12/31 05:01:16;;;;;;;5.63;1.17;;;21.70;99.90;;;;;;5073618;28;20056;-62
2020/12/31 05:03:44;;;;;;;8.02;1.83;;;21.70;99.90;;;;;;5073457;28;20495;-62
2020/12/31 05:06:16;;;;;;;5.95;1.17;;;21.60;99.90;;;;;;5073324;28;20505;-62
2020/12/31 05:08:46;;;;;;;7.07;1.20;;;21.60;99.90;;;;;;5071939;28;20036;-62
2020/12/31 05:11:14;;;;;;;10.95;1.70;;;21.60;99.90;;;;;;5071987;28;20491;-62
2020/12/31 05:13:47;;;;;;;2.95;1.17;;;21.50;99.90;;;;;;5071935;28;20471;-62
2020/12/31 05:16:26;;;;;;;5.22;1.20;;;21.40;99.90;;;;;;5073146;28;20074;-62
2020/12/31 05:18:54;;;;;;;8.70;1.73;;;21.40;99.90;;;;;;5073473;28;20519;-62
2020/12/31 05:21:22;;;;;;;7.43;1.52;;;21.30;99.90;;;;;;5073042;28;20021;-63
2020/12/31 05:23:50;;;;;;;9.15;2.08;;;21.30;99.90;;;;;;5071844;28;20036;-62
2020/12/31 05:26:37;;;;;;;7.07;1.30;;;21.20;99.90;;;;;;5073368;28;20029;-62
2020/12/31 05:29:05;;;;;;;6.55;1.40;;;21.10;99.90;;;;;;5050797;28;20037;-62
2020/12/31 05:31:53;;;;;;;7.10;1.40;;;21.00;99.90;;;;;;5050894;28;20110;-63
2020/12/31 05:34:34;;;;;;;6.85;1.42;;;21.00;99.90;;;;;;5050733;28;20041;-63
2020/12/31 05:37:21;;;;;;;11.18;1.85;;;21.00;99.90;;;;;;5034172;28;20057;-63
2020/12/31 05:40:00;;;;;;;8.55;1.40;;;21.00;99.90;;;;;;5035055;28;20444;-63
2020/12/31 05:42:29;;;;;;;6.65;1.70;;;20.80;99.90;;;;;;5034699;28;20033;-63
2020/12/31 05:45:04;;;;;;;7.95;1.73;;;20.80;99.90;;;;;;5018442;28;20033;-63
2020/12/31 05:47:34;;;;;;;9.63;1.98;;;20.80;99.90;;;;;;5034311;28;20029;-63
2020/12/31 05:50:14;;;;;;;9.43;1.40;;;20.70;99.90;;;;;;5034365;28;20053;-63
2020/12/31 05:52:42;;;;;;;9.40;1.77;;;20.60;99.90;;;;;;5034552;28;20021;-63
2020/12/31 05:55:10;;;;;;;11.57;1.85;;;20.40;99.90;;;;;;5034380;28;20030;-63
2020/12/31 05:57:50;;;;;;;8.77;2.00;;;20.30;99.90;;;;;;5034257;28;20066;-63
2020/12/31 06:00:26;;;;;;;9.52;2.80;;;20.30;99.90;;;;;;5046469;28;20033;-63
2020/12/31 06:02:56;;;;;;;10.52;2.97;;;20.20;99.90;;;;;;5053846;28;20552;-63
2020/12/31 06:05:25;;;;;;;7.25;2.20;;;20.20;99.90;;;;;;5054149;28;20060;-63
2020/12/31 06:07:55;;;;;;;12.52;3.25;;;20.20;99.90;;;;;;5054611;28;20493;-63
2020/12/31 06:10:27;;;;;;;9.98;2.50;;;20.20;99.90;;;;;;5062161;28;20072;-63
2020/12/31 06:12:56;;;;;;;11.80;3.70;;;20.20;99.90;;;;;;5076538;28;20028;-63
2020/12/31 06:15:33;;;;;;;10.85;3.63;;;20.10;99.90;;;;;;5076204;28;20025;-63
2020/12/31 06:18:03;;;;;;;13.82;3.25;;;20.10;99.90;;;;;;5076538;28;20017;-63
2020/12/31 06:20:37;;;;;;;12.52;3.45;;;20.10;99.90;;;;;;5074862;28;20021;-63
2020/12/31 06:23:15;;;;;;;13.73;3.15;;;20.10;99.90;;;;;;5074976;28;20024;-63
2020/12/31 06:25:49;;;;;;;9.73;2.92;;;20.10;99.90;;;;;;5076518;28;20028;-63
2020/12/31 06:28:20;;;;;;;10.48;3.25;;;20.00;99.90;;;;;;5076554;28;20029;-63
2020/12/31 06:30:54;;;;;;;11.65;2.92;;;20.00;99.90;;;;;;5076356;28;20027;-63
2020/12/31 06:33:49;;;;;;;5.22;3.00;;;20.00;99.90;;;;;;5076376;28;20482;-63
2020/12/31 06:36:18;;;;;;;10.55;3.15;;;20.00;99.90;;;;;;5053859;28;20033;-63
2020/12/31 06:38:48;;;;;;;8.45;2.88;;;20.00;99.90;;;;;;5037176;28;20028;-63
2020/12/31 06:41:41;;;;;;;10.02;3.25;;;20.10;99.90;;;;;;5053676;28;20175;-63
2020/12/31 06:44:13;;;;;;;8.18;2.78;;;20.10;99.90;;;;;;5033807;28;20034;-63
2020/12/31 06:46:46;;;;;;;9.18;3.03;;;20.10;99.90;;;;;;5033800;28;20053;-63
2020/12/31 06:49:15;;;;;;;7.28;3.28;;;20.10;99.90;;;;;;5032750;28;20083;-63
2020/12/31 06:51:43;;;;;;;11.90;4.00;;;20.20;99.90;;;;;;5033748;28;20422;-63
2020/12/31 06:54:12;;;;;;;7.78;3.42;;;20.20;99.90;;;;;;4984484;28;20037;-63
2020/12/31 06:56:51;;;;;;;12.43;4.88;;;20.10;99.90;;;;;;5016821;28;20133;-63
2020/12/31 06:59:33;;;;;;;9.48;3.97;;;20.10;99.90;;;;;;5017407;28;20079;-62
2020/12/31 07:02:23;;;;;;;10.95;3.58;;;20.00;99.90;;;;;;5017788;28;20065;-63
2020/12/31 07:04:51;;;;;;;13.75;2.95;;;20.00;99.90;;;;;;5013783;28;20041;-63
2020/12/31 07:07:28;;;;;;;9.93;3.45;;;20.00;99.90;;;;;;4976373;28;20029;-63
2020/12/31 07:09:59;;;;;;;10.68;3.60;;;20.00;99.90;;;;;;5016880;28;20088;-63
2020/12/31 07:12:46;;;;;;;10.68;5.60;;;20.00;99.90;;;;;;5033513;28;20438;-63
2020/12/31 07:15:16;;;;;;;9.38;3.83;;;20.00;99.90;;;;;;4996796;28;20034;-63
2020/12/31 07:17:46;;;;;;;13.02;3.90;;;19.90;99.90;;;;;;5013482;28;20116;-63
2020/12/31 07:20:17;;;;;;;9.80;3.10;;;19.90;99.90;;;;;;4996859;28;20032;-63
2020/12/31 07:22:48;;;;;;;8.65;3.10;;;19.90;99.90;;;;;;5013410;28;20259;-63
2020/12/31 07:25:18;;;;;;;11.00;3.78;;;19.90;99.90;;;;;;5013264;28;20038;-62
2020/12/31 07:27:48;;;;;;;15.30;4.95;;;20.00;99.90;;;;;;4996872;28;20121;-64
2020/12/31 07:30:18;;;;;;;12.23;4.47;;;20.00;99.90;;;;;;5013038;28;20046;-63
2020/12/31 07:32:51;;;;;;;10.10;5.20;;;20.00;99.90;;;;;;4997016;28;20030;-63
2020/12/31 07:35:31;;;;;;;12.55;5.03;;;20.00;99.90;;;;;;5009274;28;20045;-62
2020/12/31 07:38:10;;;;;;;10.63;5.88;;;20.00;99.90;;;;;;5052874;28;20025;-62
2020/12/31 07:40:45;;;;;;;15.65;6.65;;;20.00;99.90;;;;;;5052717;28;20037;-62
2020/12/31 07:43:19;;;;;;;11.25;5.80;;;20.10;99.90;;;;;;5052694;28;20124;-62
2020/12/31 07:45:50;;;;;;;10.68;6.13;;;20.10;99.90;;;;;;5052678;28;20144;-62
2020/12/31 07:48:23;;;;;;;11.15;6.53;;;20.10;99.90;;;;;;5052502;28;20057;-63
2020/12/31 07:50:59;;;;;;;12.20;6.55;;;20.20;99.90;;;;;;5052277;28;20049;-62
2020/12/31 07:53:29;;;;;;;12.23;4.97;;;20.20;99.90;;;;;;5070992;28;20032;-61
2020/12/31 07:55:57;;;;;;;11.70;5.13;;;20.20;99.90;;;;;;5074469;28;20078;-62
2020/12/31 07:58:29;;;;;;;10.80;5.20;;;20.20;99.90;;;;;;5074447;28;20025;-62
2020/12/31 08:01:07;;;;;;;10.98;5.80;;;20.20;99.90;;;;;;5073537;28;20025;-61
2020/12/31 08:03:35;;;;;;;11.45;5.72;;;20.20;99.90;;;;;;5074075;28;20029;-62
2020/12/31 08:06:07;;;;;;;10.95;5.60;;;20.20;99.90;;;;;;5074295;28;20373;-61
2020/12/31 08:08:35;;;;;;;10.27;6.28;;;20.20;99.90;;;;;;5073836;28;20104;-61
2020/12/31 08:11:10;;;;;;;8.82;5.85;;;20.20;99.90;;;;;;5073536;28;20091;-62
2020/12/31 08:13:38;;;;;;;11.65;5.75;;;20.20;99.90;;;;;;5074472;28;20048;-61
2020/12/31 08:16:07;;;;;;;14.05;6.15;;;20.20;99.90;;;;;;5074379;28;20028;-61
2020/12/31 08:18:35;;;;;;;12.93;6.47;;;20.20;99.90;;;;;;5072844;28;20021;-61
2020/12/31 08:21:07;;;;;;;10.73;5.80;;;20.10;99.90;;;;;;5074006;28;20488;-63
2020/12/31 08:23:45;;;;;;;8.25;5.88;;;20.20;99.90;;;;;;5074259;28;20031;-61
2020/12/31 08:26:15;;;;;;;13.95;5.88;;;20.20;99.90;;;;;;5073912;28;20047;-61
2020/12/31 08:28:45;;;;;;;10.37;5.80;;;20.20;99.90;;;;;;5074069;28;20128;-63
2020/12/31 08:31:17;;;;;;;15.63;6.30;;;20.20;99.90;;;;;;5074196;28;20103;-63
2020/12/31 08:33:45;;;;;;;12.75;6.30;;;20.10;99.90;;;;;;5073857;28;20477;-62
2020/12/31 08:36:25;;;;;;;12.27;5.82;;;20.20;99.90;;;;;;5074052;28;20024;-63
2020/12/31 08:39:00;;;;;;;9.13;5.85;;;20.10;99.90;;;;;;5055554;28;20068;-61
2020/12/31 08:41:28;;;;;;;11.02;6.80;;;20.10;99.90;;;;;;5073684;28;20039;-63
2020/12/31 08:44:00;;;;;;;13.38;6.45;;;20.10;99.90;;;;;;5055285;28;20067;-63
2020/12/31 08:46:28;;;;;;;11.10;6.80;;;20.10;99.90;;;;;;5073731;28;20021;-63
2020/12/31 08:48:57;;;;;;;8.05;6.65;;;20.10;99.90;;;;;;5073589;28;20541;-63
2020/12/31 08:51:30;;;;;;;9.07;6.90;;;20.10;99.90;;;;;;5073633;28;20023;-63
2020/12/31 08:54:00;;;;;;;11.18;6.60;;;20.10;99.90;;;;;;5073803;28;20021;-62
2020/12/31 08:56:34;;;;;;;8.88;6.00;;;20.10;99.90;;;;;;5072588;28;20047;-61
2020/12/31 08:59:13;;;;;;;12.23;6.93;;;20.10;99.90;;;;;;5073462;28;20032;-62
2020/12/31 09:01:43;;;;;;;12.45;6.72;;;20.10;99.90;;;;;;5073700;28;20025;-62
2020/12/31 09:04:18;;;;;;;12.63;6.38;;;20.10;99.90;;;;;;5073364;28;20028;-62
2020/12/31 09:06:52;;;;;;;8.75;6.00;;;20.00;99.90;;;;;;5073654;28;20119;-62
2020/12/31 09:09:23;;;;;;;14.07;7.25;;;20.00;99.90;;;;;;5073287;28;20095;-62
2020/12/31 09:12:08;;;;;;;11.70;6.60;;;20.00;99.90;;;;;;5073240;28;20025;-62
2020/12/31 09:14:38;;;;;;;11.77;7.10;;;20.00;99.90;;;;;;5073406;28;20387;-62
2020/12/31 09:17:25;;;;;;;9.07;6.78;;;20.00;99.90;;;;;;5073586;28;20016;-62
2020/12/31 09:19:57;;;;;;;11.32;6.80;;;20.00;99.90;;;;;;5001329;28;20029;-62
2020/12/31 09:22:25;;;;;;;12.00;6.80;;;19.90;99.90;;;;;;5051104;28;20033;-62
2020/12/31 09:24:54;;;;;;;10.18;6.95;;;19.90;99.90;;;;;;5050944;28;20037;-62
2020/12/31 09:27:25;;;;;;;10.27;6.18;;;19.90;99.90;;;;;;5050934;28;20056;-63
2020/12/31 09:30:00;;;;;;;;;;;19.90;99.90;;;;;;5051399;28;20595;-61
2020/12/31 09:32:28;;;;;;;11.93;6.80;;;19.90;99.90;;;;;;5051017;28;19971;-63
2020/12/31 09:35:01;;;;;;;9.93;6.95;;;19.90;99.90;;;;;;5017783;28;20492;-63
2020/12/31 09:37:29;;;;;;;11.10;6.55;;;19.90;99.90;;;;;;5050932;28;20044;-63
2020/12/31 09:39:57;;;;;;;11.63;6.53;;;19.90;99.90;;;;;;5050853;28;20436;-62
2020/12/31 09:42:25;;;;;;;10.15;6.32;;;19.90;99.90;;;;;;5050863;28;20200;-63
2020/12/31 09:44:53;;;;;;;8.95;6.15;;;19.90;99.90;;;;;;5050874;28;20029;-63
2020/12/31 09:47:21;;;;;;;8.73;6.47;;;19.90;99.90;;;;;;5050785;28;20578;-63
2020/12/31 09:49:48;;;;;;;12.52;7.10;;;19.90;99.90;;;;;;5052191;28;20051;-63
2020/12/31 09:52:16;;;;;;;15.48;7.55;;;19.90;99.90;;;;;;5072781;28;20025;-63
2020/12/31 09:54:44;;;;;;;10.45;7.10;;;19.90;99.90;;;;;;5072761;28;20023;-63
2020/12/31 09:57:12;;;;;;;9.70;7.40;;;19.90;99.90;;;;;;5073158;28;20482;-63
2020/12/31 09:59:40;;;;;;;11.52;6.90;;;19.90;99.90;;;;;;5072727;28;20032;-63
2020/12/31 10:02:08;;;;;;;7.32;6.05;;;19.90;99.90;;;;;;5073073;28;20460;-63
2020/12/31 10:04:37;;;;;;;8.50;7.03;;;19.90;99.90;;;;;;5070955;28;20036;-63
2020/12/31 10:07:05;;;;;;;10.10;7.80;;;19.80;99.90;;;;;;5072777;28;20108;-62
2020/12/31 10:09:32;;;;;;;10.85;6.78;;;19.70;99.90;;;;;;5072932;28;20032;-65
2020/12/31 10:12:01;;;;;;;9.05;6.43;;;19.70;99.90;;;;;;5073047;28;20027;-63
2020/12/31 10:14:29;;;;;;;8.40;6.78;;;19.80;99.90;;;;;;5072948;28;20443;-63
2020/12/31 10:16:57;;;;;;;8.27;7.40;;;19.80;99.90;;;;;;5072664;28;20021;-63
2020/12/31 10:19:25;;;;;;;9.18;6.53;;;19.70;99.90;;;;;;5072827;28;20108;-63
2020/12/31 10:21:52;;;;;;;10.32;6.45;;;19.70;99.90;;;;;;5072554;28;20107;-62
2020/12/31 10:24:21;;;;;;;10.27;9.25;;;19.70;99.90;;;;;;5072703;28;20034;-63
2020/12/31 10:26:49;;;;;;;9.95;9.05;;;19.70;99.90;;;;;;5076217;28;20039;-63
2020/12/31 10:29:17;;;;;;;10.85;9.13;;;19.70;99.90;;;;;;5074242;28;20515;-62
2020/12/31 10:31:49;;;;;;;11.77;8.88;;;19.70;99.90;;;;;;5076357;28;20025;-62
2020/12/31 10:34:18;;;;;;;15.77;8.57;;;19.70;99.90;;;;;;5076418;28;20377;-62
2020/12/31 10:36:54;;;;;;;11.38;8.70;;;19.60;99.90;;;;;;5076299;28;20104;-62
2020/12/31 10:39:23;;;;;;;8.48;7.65;;;19.60;99.90;;;;;;5076295;28;20044;-62
2020/12/31 10:41:51;;;;;;;12.30;8.57;;;19.60;99.90;;;;;;5076077;28;20492;-62
2020/12/31 10:44:20;;;;;;;8.82;7.90;;;19.60;99.90;;;;;;5074480;28;20028;-63
2020/12/31 10:46:48;;;;;;;9.98;8.02;;;19.50;99.90;;;;;;5075757;28;20099;-63
2020/12/31 10:49:16;;;;;;;12.57;8.75;;;19.50;99.90;;;;;;5075481;28;20051;-63
2020/12/31 10:51:44;;;;;;;11.10;7.93;;;19.40;99.90;;;;;;5075653;28;20027;-63
2020/12/31 10:54:12;;;;;;;9.02;8.10;;;19.40;99.90;;;;;;5057259;28;20032;-63
2020/12/31 10:56:39;;;;;;;9.00;7.70;;;19.40;99.90;;;;;;5074398;28;20048;-64
2020/12/31 10:59:07;;;;;;;8.73;7.93;;;19.30;99.90;;;;;;5075861;28;20055;-63
2020/12/31 11:01:35;;;;;;;8.75;7.50;;;19.20;99.90;;;;;;5023846;28;20040;-64
2020/12/31 11:04:03;;;;;;;8.77;7.82;;;19.20;99.90;;;;;;5075563;28;20389;-63
2020/12/31 11:06:31;;;;;;;10.30;6.93;;;19.20;99.90;;;;;;5075452;28;20071;-63
2020/12/31 11:08:58;;;;;;;10.52;7.13;;;19.00;99.90;;;;;;5075397;28;20106;-63
2020/12/31 11:11:31;;;;;;;9.60;7.50;;;19.00;99.90;;;;;;5075396;28;20078;-63
2020/12/31 11:13:59;;;;;;;15.15;8.40;;;19.00;99.90;;;;;;5075584;28;20031;-63
2020/12/31 11:16:27;;;;;;;11.88;8.55;;;18.90;99.90;;;;;;5075637;28;20023;-63
2020/12/31 11:18:54;;;;;;;9.13;8.43;;;18.90;99.90;;;;;;5075607;28;20024;-63
2020/12/31 11:21:23;;;;;;;9.32;7.97;;;18.90;99.90;;;;;;5075280;28;20016;-63
2020/12/31 11:23:51;;;;;;;11.52;7.82;;;18.90;99.90;;;;;;5073954;28;20396;-63
2020/12/31 11:26:21;;;;;;;9.18;8.05;;;18.90;99.90;;;;;;5075189;28;20477;-64
2020/12/31 11:28:50;;;;;;;9.52;8.57;;;18.90;99.90;;;;;;5075052;28;20040;-63
2020/12/31 11:31:25;;;;;;;9.43;7.85;;;18.90;99.90;;;;;;5075505;28;20024;-63
2020/12/31 11:33:55;;;;;;;9.50;8.23;;;18.90;99.90;;;;;;5075125;28;20058;-63
2020/12/31 11:36:24;;;;;;;9.85;7.97;;;18.90;99.90;;;;;;5074704;28;20020;-65
2020/12/31 11:38:52;;;;;;;8.43;7.68;;;18.90;99.90;;;;;;5074908;28;20537;-63
2020/12/31 11:41:20;;;;;;;8.40;7.65;;;18.90;99.90;;;;;;5074803;28;20028;-63
2020/12/31 11:43:48;;;;;;;8.85;8.18;;;18.80;99.90;;;;;;5073680;28;20051;-63
2020/12/31 11:46:16;;;;;;;9.48;8.35;;;18.80;99.90;;;;;;5074811;28;20089;-63
2020/12/31 11:48:44;;;;;;;9.55;8.05;;;18.80;99.90;;;;;;5074551;28;20505;-63
2020/12/31 11:51:13;;;;;;;8.65;8.05;;;18.80;99.90;;;;;;5073711;28;20020;-63
2020/12/31 11:53:41;;;;;;;9.77;7.40;;;18.70;99.90;;;;;;5074909;28;20016;-63
2020/12/31 11:56:09;;;;;;;8.73;7.35;;;18.70;99.90;;;;;;5073319;28;20108;-63
2020/12/31 11:58:37;;;;;;;8.10;7.40;;;18.60;99.90;;;;;;5074562;28;20017;-63
2020/12/31 12:01:05;;;;;;;8.80;7.90;;;18.60;99.90;;;;;;5074454;28;20077;-63
2020/12/31 12:03:33;;;;;;;9.25;8.40;;;18.60;99.90;;;;;;5074544;28;20024;-63
2020/12/31 12:06:01;;;;;;;10.48;9.15;;;18.60;99.90;;;;;;5074697;28;20404;-63
2020/12/31 12:08:29;;;;;;;10.05;9.05;;;18.50;99.90;;;;;;5074286;28;20032;-63
2020/12/31 12:10:57;;;;;;;13.45;9.32;;;18.50;99.90;;;;;;5056081;28;20039;-62
2020/12/31 12:13:25;;;;;;;10.30;9.02;;;18.50;99.90;;;;;;5074286;28;20376;-63
2020/12/31 12:15:53;;;;;;;12.98;7.95;;;18.40;99.90;;;;;;5074216;28;20021;-63
2020/12/31 12:18:24;;;;;;;9.05;8.18;;;18.40;99.90;;;;;;5074424;28;20044;-63
2020/12/31 12:20:52;;;;;;;16.10;7.93;;;18.40;99.90;;;;;;5074567;28;20016;-63
2020/12/31 12:23:20;;;;;;;8.70;7.80;;;18.40;99.90;;;;;;5074277;28;20039;-64
2020/12/31 12:25:48;;;;;;;9.02;7.20;;;18.40;99.90;;;;;;5074047;28;20524;-63
2020/12/31 12:28:16;;;;;;;9.15;7.40;;;18.30;99.90;;;;;;5073957;28;20070;-63
2020/12/31 12:30:44;;;;;;;11.00;7.85;;;18.30;99.90;;;;;;5073779;28;20028;-63
2020/12/31 12:33:11;;;;;;;11.40;8.27;;;18.30;99.90;;;;;;5073823;28;20103;-63
2020/12/31 12:35:40;;;;;;;12.57;8.07;;;18.30;99.90;;;;;;5074117;28;20508;-63
2020/12/31 12:38:07;;;;;;;8.95;7.10;;;18.30;99.90;;;;;;5072496;28;20437;-63
2020/12/31 12:40:36;;;;;;;8.60;7.40;;;18.20;99.90;;;;;;5073962;28;20111;-62
2020/12/31 12:43:04;;;;;;;10.40;7.72;;;18.20;99.90;;;;;;5073757;28;20461;-64
2020/12/31 12:45:32;;;;;;;10.77;7.85;;;18.10;99.90;;;;;;5073861;28;20035;-63
2020/12/31 12:48:00;;;;;;;11.10;7.45;;;18.10;99.90;;;;;;5071804;28;20016;-63
2020/12/31 12:50:27;;;;;;;7.88;7.18;;;18.10;99.90;;;;;;5073373;28;20135;-63
2020/12/31 12:52:55;;;;;;;9.35;8.43;;;18.20;99.90;;;;;;5073849;28;20545;-63
2020/12/31 12:55:23;;;;;;;12.55;8.82;;;18.20;99.90;;;;;;5055300;28;20054;-63
2020/12/31 12:57:51;;;;;;;11.60;9.68;;;18.20;99.90;;;;;;5073811;28;20028;-63